Data for 08/28/2018

Time Sea-Level Adjusted Pressure Absolute Pressure Temperature Relative Humidity Dew Point   
(mb) (inHg) (mb) (inHg) (C) (F) (%) (C) (F)
00:05 1023 30.21 852 25.16 5.3 41.6 78 1.7 35.1
00:10 1023 30.21 852 25.16 5.3 41.5 78 1.7 35.1
00:15 1023 30.21 852 25.16 5.3 41.5 78 1.7 35
00:20 1023 30.21 852 25.16 5.2 41.4 78 1.6 34.9
00:25 1023 30.21 852 25.16 5.3 41.5 77 1.6 34.9
00:30 1023 30.21 852 25.16 5.2 41.4 78 1.7 35
00:35 1023 30.21 852 25.16 5.3 41.5 77 1.6 34.9
00:40 1023 30.21 852 25.16 5.3 41.6 77 1.7 35
00:45 1023 30.21 852 25.16 5.3 41.6 77 1.7 35
00:50 1023 30.21 852 25.16 5.3 41.6 77 1.6 34.9
00:55 1023 30.21 852 25.16 5.3 41.5 77 1.6 34.9
01:00 1023 30.21 852 25.16 5.2 41.4 77 1.6 34.8
01:05 1023 30.21 852 25.16 5.2 41.4 77 1.5 34.8
01:10 1023 30.21 852 25.16 5.3 41.5 78 1.7 35
01:15 1023 30.21 852 25.16 5.3 41.5 77 1.6 34.8
01:20 1023 30.21 852 25.16 5.3 41.6 77 1.7 35
01:25 1023 30.21 852 25.16 5.3 41.6 78 1.8 35.2
01:30 1023 30.21 852 25.16 5.3 41.5 78 1.7 35
01:35 1023 30.21 852 25.16 5.2 41.4 78 1.7 35
01:40 1023 30.21 852 25.16 5.2 41.4 78 1.7 35
01:45 1023 30.21 852 25.16 5.2 41.4 77 1.6 34.8
01:50 1023 30.21 852 25.16 5.2 41.3 78 1.6 34.9
01:55 1023 30.21 852 25.16 5.2 41.3 78 1.6 34.8
02:00 1023 30.21 852 25.16 5.2 41.3 77 1.5 34.6
02:05 1023 30.21 852 25.16 5.2 41.4 77 1.6 34.8
02:10 1023 30.21 852 25.16 5.2 41.3 77 1.5 34.8
02:15 1023 30.21 852 25.16 5.2 41.3 78 1.6 34.8
02:20 1023 30.21 852 25.16 5.2 41.3 77 1.4 34.6
02:25 1023 30.21 852 25.16 5.2 41.3 76 1.4 34.5
02:30 1023 30.21 852 25.16 5.3 41.5 74 1 33.9
02:35 1023 30.21 852 25.16 5.4 41.7 74 1.1 33.9
02:40 1023 30.21 852 25.16 5.5 41.8 74 1.2 34.2
02:45 1023 30.21 852 25.16 5.5 41.9 75 1.5 34.6
02:50 1023 30.21 852 25.16 5.5 41.9 76 1.6 34.9
02:55 1023 30.21 852 25.16 5.5 41.9 77 1.8 35.3
03:00 1023 30.21 852 25.16 5.5 41.8 77 1.8 35.2
03:05 1023 30.21 852 25.16 5.4 41.8 76 1.5 34.7
03:10 1023 30.21 852 25.16 5.5 41.9 77 1.9 35.3
03:15 1023 30.21 852 25.16 5.4 41.8 78 2 35.5
03:20 1023 30.21 852 25.16 5.3 41.5 78 1.8 35.3
03:25 1023 30.21 852 25.16 5.2 41.4 80 2 35.6
03:30 1023 30.21 852 25.16 5.3 41.5 80 2.1 35.8
03:35 1023 30.21 852 25.16 5.1 41.2 82 2.3 36.1
03:40 1023 30.21 852 25.16 5 41 82 2.2 36
03:45 1023 30.21 852 25.16 5 40.9 82 2.2 36
03:50 1023 30.21 852 25.16 4.9 40.9 83 2.3 36.1
03:55 1023 30.21 852 25.16 4.9 40.8 82 2 35.7
04:00 1023 30.21 852 25.16 4.9 40.8 81 2 35.6
04:05 1023 30.21 852 25.16 5 40.9 82 2.1 35.7
04:10 1023 30.21 852 25.16 5 41 81 2 35.5
04:15 1023 30.21 852 25.16 5.1 41.1 82 2.2 36
04:20 1023 30.21 852 25.16 5 41 81 2.1 35.7
04:25 1023 30.21 852 25.16 4.9 40.9 81 2 35.6
04:30 1023 30.21 852 25.16 4.9 40.8 82 2 35.7
04:35 1023 30.21 852 25.16 4.9 40.8 81 2 35.6
04:40 1023 30.21 852 25.16 4.8 40.7 82 2 35.6
04:45 1023 30.21 852 25.16 4.7 40.5 83 2.1 35.8
04:50 1023 30.21 852 25.16 4.6 40.3 84 2.1 35.9
04:55 1023 30.21 852 25.16 4.5 40 84 2.1 35.7
05:00 1023 30.21 852 25.16 4.4 39.9 85 2 35.6
05:05 1023 30.21 852 25.16 4.3 39.7 85 1.9 35.5
05:10 1023 30.21 852 25.16 4.2 39.6 84 1.8 35.2
05:15 1023 30.21 852 25.16 4.1 39.5 84 1.8 35.2
05:20 1023 30.21 852 25.16 4 39.3 84 1.6 34.9
05:25 1023 30.21 852 25.16 4.1 39.3 84 1.7 35
05:30 1023 30.21 852 25.16 4.1 39.4 84 1.6 34.9
05:35 1023 30.21 852 25.16 4.2 39.6 82 1.5 34.7
05:40 1023 30.21 852 25.16 4.3 39.8 82 1.5 34.7
05:45 1023 30.21 852 25.16 4.4 40 82 1.5 34.8
05:50 1023 30.21 852 25.16 4.5 40 82 1.6 34.9
05:55 1023 30.21 852 25.16 4.4 39.9 82 1.6 34.8
06:00 1023 30.21 852 25.16 4.3 39.8 82 1.5 34.6
06:05 1023 30.21 852 25.16 4.4 40 81 1.5 34.7
06:10 1023 30.21 852 25.16 4.4 40 82 1.6 34.8
06:15 1023 30.21 852 25.16 4.4 39.9 82 1.6 34.8
06:20 1023 30.21 852 25.16 4.5 40 80 1.3 34.4
06:25 1023 30.21 852 25.16 4.6 40.2 80 1.4 34.5
06:30 1023 30.21 852 25.16 4.6 40.3 80 1.4 34.5
06:35 1023 30.21 852 25.16 4.6 40.3 80 1.5 34.6
06:40 1023 30.21 852 25.16 4.7 40.5 79 1.4 34.5
06:45 1023 30.21 852 25.16 4.9 40.8 79 1.5 34.7
06:50 1023 30.21 852 25.16 5 41.1 78 1.6 34.8
06:55 1023 30.21 852 25.16 5 41.1 79 1.6 34.9
07:00 1023 30.21 852 25.16 5 41.1 79 1.7 35.1
07:05 1023 30.21 852 25.16 5.2 41.3 78 1.6 34.9
07:10 1023 30.21 852 25.16 5.3 41.6 77 1.6 34.9
07:15 1023 30.21 852 25.16 5.7 42.2 76 1.8 35.2
07:20 1023 30.21 852 25.16 6.2 43.2 73 1.7 35.1
07:25 1023 30.21 852 25.16 6.5 43.6 71 1.7 35
07:30 1023 30.21 852 25.16 6.7 44.1 69 1.5 34.8
07:35 1023 30.21 852 25.16 7.2 44.9 67 1.4 34.5
07:40 1023 30.21 852 25.16 7.5 45.5 63 1 33.7
07:45 1023 30.21 852 25.16 7.7 45.9 62 0.9 33.6
07:50 1023 30.21 852 25.16 8 46.3 61 1 33.8
07:55 1023 30.21 852 25.16 8.2 46.7 62 1.4 34.5
08:00 1023 30.21 852 25.16 8.5 47.2 60 1.3 34.3
08:05 1023 30.21 852 25.16 8.6 47.4 60 1.2 34.2
08:10 1023 30.21 853 25.19 8.7 47.6 59 1.2 34.2
08:15 1023 30.21 853 25.19 8.8 47.8 58 1 33.8
08:20 1023 30.21 853 25.19 9 48.1 58 1.1 33.9
08:25 1023 30.21 853 25.19 9.1 48.4 57 1 33.8
08:30 1023 30.21 853 25.19 9.1 48.3 59 1.4 34.6
08:35 1023 30.21 853 25.19 9.2 48.6 59 1.6 34.8
08:40 1023 30.21 853 25.19 9.3 48.8 57 1.2 34.1
08:45 1023 30.21 853 25.19 9.8 49.6 57 1.6 34.9
08:50 1023 30.21 853 25.19 10.2 50.4 56 1.8 35.2
08:55 1023 30.21 853 25.19 10.5 50.9 54 1.5 34.8
09:00 1023 30.21 853 25.19 10.4 50.8 55 1.8 35.2
09:05 1023 30.21 853 25.19 10.7 51.3 53 1.6 34.9
09:10 1023 30.21 853 25.19 11.3 52.3 53 2.1 35.8
09:15 1023 30.21 853 25.19 11.4 52.6 51 1.7 35.1
09:20 1023 30.21 853 25.19 11.3 52.3 53 2.1 35.8
09:25 1023 30.21 853 25.19 11.9 53.5 50 2 35.6
09:30 1023 30.21 853 25.19 11.7 53 55 2.9 37.3
09:35 1023 30.21 853 25.19 11.5 52.8 50 1.6 34.9
09:40 1023 30.21 853 25.19 11.6 52.9 49 1.3 34.3
09:45 1023 30.21 852 25.16 10.8 51.4 54 1.9 35.3
09:50 1023 30.21 852 25.16 10.9 51.6 50 0.9 33.6
09:55 1023 30.21 852 25.16 12.4 54.2 44 0.6 33.1
10:00 1023 30.21 852 25.16 13 55.4 44 1.2 34.2
10:05 1023 30.21 852 25.16 13.2 55.7 44 1.3 34.4
10:10 1023 30.21 852 25.16 12.5 54.4 47 1.4 34.6
10:15 1023 30.21 852 25.16 12.5 54.6 46 1.2 34.1
10:20 1023 30.21 852 25.16 12.8 55.1 45 1.3 34.3
10:25 1023 30.21 852 25.16 13.1 55.6 44 1.2 34.2
10:30 1023 30.21 852 25.16 12.7 54.9 46 1.6 34.8
10:35 1023 30.21 852 25.16 12.2 53.9 46 1 33.8
10:40 1023 30.21 852 25.16 12.9 55.1 44 1.1 34
10:45 1023 30.21 852 25.16 13.1 55.7 43 1 33.9
10:50 1023 30.21 852 25.16 14 57.1 42 1.5 34.7
10:55 1023 30.21 852 25.16 14.1 57.4 41 1.1 33.9
11:00 1023 30.21 852 25.16 14.1 57.4 40 0.9 33.6
11:05 1023 30.21 852 25.16 14.8 58.7 38 0.9 33.6
11:10 1023 30.21 852 25.16 15.2 59.4 37 0.8 33.5
11:15 1023 30.21 852 25.16 15 59 37 0.5 32.9
11:20 1023 30.21 852 25.16 14.8 58.6 35 -0.3 31.4
11:25 1023 30.21 852 25.16 15.2 59.4 34 -0.2 31.6
11:30 1023 30.21 852 25.16 15.6 60 35 0.3 32.6
11:35 1023 30.21 852 25.16 15.5 59.8 34 -0.2 31.7
11:40 1023 30.21 852 25.16 15.2 59.4 35 0.1 32.1
11:45 1023 30.21 852 25.16 15.1 59.2 35 -0.2 31.6
11:50 1022 30.18 852 25.16 15.7 60.2 34 -0.1 31.8
11:55 1023 30.21 852 25.16 15.1 59.2 36 0.3 32.5
12:00 1022 30.18 852 25.16 14.7 58.4 40 1.3 34.4
12:05 1022 30.18 852 25.16 14.9 58.9 37 0.5 32.9
12:10 1022 30.18 852 25.16 16.1 60.9 34 0.2 32.4
12:15 1022 30.18 852 25.16 16.3 61.3 33 0.1 32.1
12:20 1022 30.18 851 25.13 16.3 61.4 32 -0.1 31.9
12:25 1022 30.18 851 25.13 16.1 60.9 32 -0.5 31.2
12:30 1022 30.18 851 25.13 16.2 61.1 33 -0.1 31.9
12:35 1022 30.18 851 25.13 15.9 60.5 34 -0 32
12:40 1022 30.18 851 25.13 16.3 61.3 32 -0.4 31.3
12:45 1022 30.18 851 25.13 17 62.6 32 0.1 32.2
12:50 1022 30.18 851 25.13 17.4 63.4 30 -0.1 31.8
12:55 1022 30.18 851 25.13 17.5 63.5 31 0.4 32.7
13:00 1022 30.18 851 25.13 17.4 63.3 32 0.6 33
13:05 1022 30.18 851 25.13 17.8 64 31 0.6 33.1
13:10 1022 30.18 851 25.13 17.9 64.2 30 0.3 32.5
13:15 1022 30.18 851 25.13 17.4 63.2 30 -0.1 31.9
13:20 1022 30.18 851 25.13 17.6 63.6 31 0.4 32.7
13:25 1022 30.18 851 25.13 16.8 62.3 33 0.4 32.7
13:30 1022 30.18 851 25.13 16.9 62.5 32 0.2 32.4
13:35 1022 30.18 851 25.13 16.2 61.2 34 0.4 32.7
13:40 1022 30.18 851 25.13 17.2 62.9 32 0.5 32.9
13:45 1022 30.18 851 25.13 17 62.6 33 0.6 33.1
13:50 1022 30.18 851 25.13 17.4 63.2 30 -0.4 31.3
13:55 1022 30.18 851 25.13 17.7 63.9 30 0.3 32.5
14:00 1022 30.18 851 25.13 18.1 64.6 29 -0.2 31.6
14:05 1022 30.18 851 25.13 18.1 64.6 29 0.2 32.3
14:10 1022 30.18 851 25.13 18.5 65.3 29 0 32.1
14:15 1022 30.18 851 25.13 17.7 63.9 30 0.2 32.4
14:20 1022 30.18 851 25.13 17.1 62.7 31 -0.3 31.5
14:25 1021 30.15 851 25.13 17.5 63.5 29 -0.5 31.2
14:30 1021 30.15 851 25.13 18.3 65 28 -0.4 31.3
14:35 1021 30.15 851 25.13 18.1 64.6 28 -0.6 31
14:40 1021 30.15 851 25.13 18.3 64.9 27 -0.7 30.7
14:45 1021 30.15 850 25.1 18.2 64.7 30 0.2 32.4
14:50 1021 30.15 850 25.1 18.3 65 28 -0.5 31.1
14:55 1021 30.15 850 25.1 19 66.3 25 -1.2 29.9
15:00 1021 30.15 850 25.1 18.6 65.4 26 -1.1 30
15:05 1021 30.15 850 25.1 18.6 65.4 25 -1.6 29.1
15:10 1021 30.15 850 25.1 18.5 65.2 27 -0.5 31.1
15:15 1021 30.15 850 25.1 18.9 66.1 26 -1 30.2
15:20 1021 30.15 850 25.1 18.9 66 27 -0.6 31
15:25 1021 30.15 850 25.1 19.4 66.9 26 -0.4 31.3
15:30 1021 30.15 850 25.1 19.2 66.6 26 -0.5 31
15:35 1021 30.15 850 25.1 19.3 66.7 28 0.3 32.6
15:40 1021 30.15 850 25.1 18.8 65.8 28 -0 32
15:45 1021 30.15 850 25.1 18.2 64.7 29 -0 32
15:50 1021 30.15 850 25.1 17.9 64.3 30 0 32
15:55 1021 30.15 850 25.1 17.6 63.6 30 -0.2 31.7
16:00 1021 30.15 850 25.1 17.4 63.3 31 0.4 32.7
16:05 1021 30.15 850 25.1 17.7 63.8 31 0.4 32.7
16:10 1021 30.15 850 25.1 18 64.4 29 -0.2 31.6
16:15 1021 30.15 850 25.1 18 64.4 30 0.1 32.2
16:20 1021 30.15 850 25.1 18 64.4 31 0.8 33.5
16:25 1021 30.15 850 25.1 18.1 64.6 29 -0 32
16:30 1021 30.15 850 25.1 18.3 65 29 0.3 32.5
16:35 1021 30.15 850 25.1 18.8 65.8 28 0.1 32.2
16:40 1021 30.15 850 25.1 18.8 65.8 29 0.5 32.9
16:45 1021 30.15 850 25.1 18.7 65.6 29 0.4 32.7
16:50 1021 30.15 850 25.1 18.6 65.5 30 0.8 33.5
16:55 1021 30.15 850 25.1 18.8 65.8 29 0.3 32.6
17:00 1021 30.15 850 25.1 18.8 65.9 29 0.7 33.3
17:05 1021 30.15 850 25.1 18.8 65.9 30 1.1 33.9
17:10 1021 30.15 850 25.1 18.3 64.9 30 0.7 33.3
17:15 1021 30.15 850 25.1 18.4 65 29 0.1 32.1
17:20 1021 30.15 850 25.1 18.5 65.2 29 0.4 32.7
17:25 1021 30.15 850 25.1 18.6 65.5 29 0.2 32.4
17:30 1021 30.15 850 25.1 18.4 65.1 31 0.9 33.6
17:35 1021 30.15 850 25.1 18 64.3 31 0.5 32.9
17:40 1021 30.15 850 25.1 17.8 64 31 0.4 32.8
17:45 1021 30.15 850 25.1 17.7 63.9 31 0.5 32.8
17:50 1021 30.15 850 25.1 17.6 63.7 31 0.3 32.6
17:55 1021 30.15 850 25.1 17.6 63.6 31 0.2 32.4
18:00 1021 30.15 850 25.1 17.4 63.4 31 0.1 32.1
18:05 1021 30.15 850 25.1 17.4 63.2 31 0.1 32.2
18:10 1021 30.15 850 25.1 17.3 63.2 31 0 32
18:15 1021 30.15 850 25.1 17.3 63.1 33 0.8 33.4
18:20 1021 30.15 850 25.1 17.2 62.9 32 0.5 32.8
18:25 1021 30.15 850 25.1 17.1 62.7 32 0.4 32.7
18:30 1021 30.15 850 25.1 17 62.6 32 0.5 32.9
18:35 1021 30.15 850 25.1 16.9 62.5 32 0.1 32.2
18:40 1021 30.15 850 25.1 16.9 62.3 32 0.3 32.6
18:45 1021 30.15 850 25.1 16.7 62.1 33 0.4 32.7
18:50 1021 30.15 850 25.1 16.6 61.8 35 1.1 34
18:55 1021 30.15 850 25.1 16.4 61.4 37 1.7 35.1
19:00 1021 30.15 850 25.1 16.2 61.1 36 1.2 34.1
19:05 1021 30.15 850 25.1 16 60.7 37 1.3 34.3
19:10 1021 30.15 850 25.1 15.8 60.4 37 1 33.9
19:15 1021 30.15 850 25.1 15.6 60.2 37 1.2 34.2
19:20 1021 30.15 850 25.1 15.6 60.1 39 1.8 35.3
19:25 1021 30.15 850 25.1 15.1 59.2 45 3.3 38
19:30 1021 30.15 850 25.1 14.4 57.9 48 3.6 38.4
19:35 1021 30.15 850 25.1 13.9 56.9 51 4.1 39.4
19:40 1021 30.15 850 25.1 13.2 55.7 53 3.9 39.1
19:45 1021 30.15 850 25.1 12.7 54.8 54 3.8 38.8
19:50 1021 30.15 850 25.1 12.4 54.3 55 3.8 38.8
19:55 1021 30.15 850 25.1 12.2 53.9 56 3.7 38.7
20:00 1021 30.15 850 25.1 11.9 53.5 57 3.8 38.8
20:05 1021 30.15 850 25.1 11.8 53.2 57 3.7 38.7
20:10 1021 30.15 850 25.1 11.6 53 58 3.7 38.6
20:15 1021 30.15 850 25.1 11.6 52.8 58 3.7 38.6
20:20 1021 30.15 850 25.1 11.5 52.6 58 3.6 38.4
20:25 1021 30.15 850 25.1 11.4 52.4 58 3.5 38.3
20:30 1021 30.15 850 25.1 11.2 52.1 60 3.7 38.6
20:35 1021 30.15 850 25.1 11 51.7 59 3.3 37.9
20:40 1021 30.15 850 25.1 11 51.7 59 3.2 37.8
20:45 1021 30.15 850 25.1 11.1 52 58 3.2 37.7
20:50 1021 30.15 850 25.1 11.1 51.9 59 3.5 38.3
20:55 1021 30.15 850 25.1 10.5 51 62 3.6 38.4
21:00 1021 30.15 850 25.1 10.3 50.6 61 3.2 37.8
21:05 1021 30.15 850 25.1 10.3 50.5 61 3.2 37.7
21:10 1021 30.15 850 25.1 10.3 50.5 62 3.3 37.9
21:15 1021 30.15 850 25.1 10.2 50.3 60 2.9 37.3
21:20 1021 30.15 850 25.1 10.3 50.6 59 2.7 36.8
21:25 1021 30.15 850 25.1 10.3 50.6 59 2.7 36.9
21:30 1021 30.15 850 25.1 10.3 50.5 59 2.6 36.8
21:35 1021 30.15 850 25.1 10.2 50.3 58 2.4 36.2
21:40 1021 30.15 850 25.1 10.3 50.6 58 2.5 36.6
21:45 1021 30.15 850 25.1 10.3 50.5 59 2.7 36.8
21:50 1021 30.15 850 25.1 10.1 50.1 60 2.8 37
21:55 1021 30.15 850 25.1 9.9 49.7 62 2.9 37.2
22:00 1021 30.15 850 25.1 9.7 49.4 61 2.6 36.7
22:05 1021 30.15 850 25.1 9.7 49.4 61 2.5 36.6
22:10 1021 30.15 850 25.1 9.7 49.5 60 2.5 36.5
22:15 1021 30.15 850 25.1 9.9 49.7 59 2.1 35.9
22:20 1021 30.15 850 25.1 10.1 50.2 58 2.3 36.1
22:25 1021 30.15 850 25.1 10.2 50.4 58 2.4 36.3
22:30 1021 30.15 850 25.1 10.2 50.3 59 2.5 36.5
22:35 1021 30.15 850 25.1 10.1 50.1 59 2.5 36.6
22:40 1021 30.15 850 25.1 10 50 61 2.7 36.9
22:45 1021 30.15 850 25.1 9.7 49.4 62 2.7 36.9
22:50 1021 30.15 850 25.1 9.4 48.8 62 2.6 36.6
22:55 1021 30.15 850 25.1 9.3 48.7 63 2.6 36.7
23:00 1021 30.15 850 25.1 9.1 48.4 63 2.4 36.4
23:05 1021 30.15 850 25.1 9.1 48.4 63 2.6 36.6
23:10 1021 30.15 850 25.1 9.1 48.3 64 2.5 36.6
23:15 1021 30.15 850 25.1 8.9 48.1 64 2.6 36.6
23:20 1021 30.15 850 25.1 8.8 47.8 65 2.6 36.7
23:25 1021 30.15 850 25.1 8.7 47.6 65 2.5 36.5
23:30 1021 30.15 850 25.1 8.7 47.7 64 2.4 36.3
23:35 1021 30.15 850 25.1 8.8 47.8 63 2.2 36
23:40 1021 30.15 850 25.1 9 48.1 63 2.2 36
23:45 1021 30.15 850 25.1 9 48.3 62 2.2 36
23:50 1021 30.15 850 25.1 9 48.2 63 2.4 36.3
23:55 1021 30.15 850 25.1 8.9 48 63 2.1 35.9
24:00 1021 30.15 850 25.1 8.9 47.9 63 2.2 36